Time;durP1;ratioP1;P1;durP2;ratioP2;P2;SDS_P1;SDS_P2;PMS_P1;PMS_P2;Temp;Humidity;BMP_temperature;BMP_pressure;BME280_temperature;BME280_humidity;BME280_pressure;Samples;Min_cycle;Max_cycle;Signal;HPM_P1;HPM_P2
2023/10/04 00:01:32;;;;;;;;;;;;;;;;;;;;;
2023/10/04 00:04:10;;;;;;;11.02;4.35;;;;;;;11.82;65.97;100029.00;6168835;23;20043;-94
2023/10/04 00:07:02;;;;;;;15.77;5.43;;;;;;;11.66;66.23;100014.56;6121755;23;19992;-94
2023/10/04 00:09:28;;;;;;;10.65;4.82;;;;;;;11.76;66.59;100046.22;6143498;23;20040;-95
2023/10/04 00:12:13;;;;;;;9.63;4.55;;;;;;;11.68;66.23;100017.84;6141944;23;20001;-94
2023/10/04 00:15:25;;;;;;;10.02;5.10;;;;;;;11.83;66.17;100039.53;6143651;23;20017;-95
2023/10/04 00:18:12;;;;;;;;;;;;;;;;;;;;;
2023/10/04 00:21:08;;;;;;;10.68;5.22;;;;;;;11.49;66.62;99993.16;6147258;23;20033;-94
2023/10/04 00:24:09;;;;;;;10.05;4.72;;;;;;;11.56;66.56;100009.94;6144875;23;20008;-94
2023/10/04 00:30:00;;;;;;;13.13;4.97;;;;;;;11.73;66.67;100037.56;6162902;23;20468;-95
2023/10/04 00:32:49;;;;;;;7.97;5.13;;;;;;;11.54;66.87;100012.09;6152595;23;20004;-94
2023/10/04 00:35:43;;;;;;;10.10;5.13;;;;;;;11.41;66.59;99993.63;6151406;23;20005;-94
2023/10/04 00:38:14;;;;;;;12.70;5.70;;;;;;;11.42;66.76;99997.97;6168809;23;20005;-94
2023/10/04 00:40:52;;;;;;;;;;;;;;;;;;;;;
2023/10/04 00:43:23;;;;;;;15.43;5.32;;;;;;;11.49;67.15;100006.66;6167635;23;20025;-94
2023/10/04 00:46:05;;;;;;;12.20;6.13;;;;;;;11.49;66.93;100006.66;6144053;23;20092;-95
2023/10/04 00:48:39;;;;;;;10.88;5.00;;;;;;;11.36;67.29;100002.50;6146099;23;20012;-94
2023/10/04 00:51:14;;;;;;;14.60;5.03;;;;;;;11.41;67.26;100016.00;6141771;23;20012;-94
2023/10/04 00:53:55;;;;;;;12.95;5.28;;;;;;;11.49;67.03;100018.25;6077818;23;1543940;-93
2023/10/04 00:59:35;;;;;;;11.40;5.20;;;;;;;11.32;67.21;99999.50;6171786;23;20048;-94
2023/10/04 01:02:21;;;;;;;10.10;5.68;;;;;;;11.36;67.09;99996.31;6115927;23;20006;-95
2023/10/04 01:05:02;;;;;;;11.77;5.60;;;;;;;11.33;67.12;99986.88;6083580;23;20006;-94
2023/10/04 01:07:39;;;;;;;16.70;5.70;;;;;;;11.40;67.39;100002.81;6086169;23;20002;-94
2023/10/04 01:10:30;;;;;;;11.20;5.55;;;;;;;11.19;67.43;99981.09;6062703;23;20298;-95
2023/10/04 01:13:20;;;;;;;;;;;;;;;;;;;;;
2023/10/04 01:15:49;;;;;;;12.77;5.40;;;;;;;11.36;66.88;99975.53;6093684;23;20002;-94
2023/10/04 01:18:31;;;;;;;;;;;;;;;;;;;;;
2023/10/04 01:20:56;;;;;;;;;;;;;;;11.47;67.25;100009.59;6088098;23;20025;-94
2023/10/04 01:23:25;;;;;;;12.30;5.47;;;;;;;11.43;67.44;100007.69;6084363;23;20264;-95
2023/10/04 01:26:44;;;;;;;11.98;5.47;;;;;;;11.43;67.45;100004.97;6060605;23;20005;-94
2023/10/04 01:29:36;;;;;;;12.75;6.07;;;;;;;11.47;67.36;100000.69;6108838;23;20084;-95
2023/10/04 01:32:23;;;;;;;10.68;5.90;;;;;;;11.22;67.51;99969.78;6097581;23;20028;-95
2023/10/04 01:34:56;;;;;;;10.40;5.65;;;;;;;11.33;67.88;100003.84;6119758;23;20025;-93
2023/10/04 01:37:31;;;;;;;12.25;6.18;;;;;;;11.19;68.01;99991.88;6141847;23;20001;-92
2023/10/04 01:40:32;;;;;;;13.13;6.30;;;;;;;11.11;67.76;99963.50;6148649;23;20001;-95
2023/10/04 01:43:09;;;;;;;13.57;6.43;;;;;;;11.03;67.97;99972.06;6191494;23;20044;-94
2023/10/04 01:46:01;;;;;;;11.00;6.38;;;;;;;11.05;68.09;99975.31;6116397;23;20058;-95
2023/10/04 01:48:43;;;;;;;13.82;6.05;;;;;;;10.95;68.45;99977.91;6116711;23;20009;-95
2023/10/04 01:51:16;;;;;;;14.23;6.05;;;;;;;10.89;68.61;99960.06;6091549;23;20006;-95
2023/10/04 01:53:58;;;;;;;;;;;;;;;;;;;;;
2023/10/04 01:56:37;;;;;;;15.18;6.82;;;;;;;10.96;68.07;99965.25;6119175;23;20393;-95
2023/10/04 01:59:08;;;;;;;12.60;6.47;;;;;;;11.01;68.41;99976.09;6092095;23;19985;-95
2023/10/04 02:01:44;;;;;;;14.77;6.75;;;;;;;11.12;68.35;99988.56;6084886;23;20045;-94
2023/10/04 02:04:20;;;;;;;14.48;5.93;;;;;;;10.94;68.30;99957.44;6116359;23;20029;-94
2023/10/04 02:06:58;;;;;;;12.95;6.43;;;;;;;10.90;68.11;99956.31;6113301;23;20005;-95
2023/10/04 02:09:24;;;;;;;12.73;6.25;;;;;;;10.79;68.33;99952.72;6092033;23;20028;-94
2023/10/04 02:11:58;;;;;;;14.77;6.13;;;;;;;10.82;68.55;99964.88;6112137;23;20025;-94
2023/10/04 02:14:53;;;;;;;12.32;6.30;;;;;;;10.82;68.71;99989.91;6058520;23;20015;-95
2023/10/04 02:17:24;;;;;;;14.93;6.55;;;;;;;10.72;68.90;99971.75;6133007;23;20027;-96
2023/10/04 02:19:58;;;;;;;20.85;6.22;;;;;;;10.77;68.81;99967.50;6112010;23;20009;-95
2023/10/04 02:22:37;;;;;;;12.60;6.40;;;;;;;10.70;68.72;99971.22;6113123;23;20005;-95
2023/10/04 02:30:56;;;;;;;16.15;6.65;;;;;;;10.66;69.09;99972.78;6082490;23;20289;-95
2023/10/04 02:33:54;;;;;;;14.30;6.30;;;;;;;10.54;69.28;99969.44;6053393;23;19999;-95
2023/10/04 02:36:30;;;;;;;14.65;6.88;;;;;;;10.67;69.30;99987.88;6058868;23;20006;-95
2023/10/04 02:38:58;;;;;;;12.88;6.82;;;;;;;10.61;69.22;99969.25;6081522;23;20052;-95
2023/10/04 02:41:41;;;;;;;17.27;7.40;;;;;;;10.52;69.39;99963.47;6135121;23;20006;-94
2023/10/04 02:44:08;;;;;;;13.57;6.70;;;;;;;10.59;69.15;99969.50;6112802;23;20077;-95
2023/10/04 02:46:55;;;;;;;12.68;6.38;;;;;;;10.55;69.48;99978.34;6111556;23;20008;-94
2023/10/04 02:49:35;;;;;;;17.50;6.65;;;;;;;10.40;69.59;99958.25;6112920;23;20455;-94
2023/10/04 02:52:01;;;;;;;13.88;7.05;;;;;;;10.65;69.76;100000.00;6115619;23;20002;-95
2023/10/04 02:54:36;;;;;;;17.05;6.65;;;;;;;10.59;69.23;99977.56;6111715;23;20049;-95
2023/10/04 02:57:12;;;;;;;14.80;6.97;;;;;;;10.35;69.88;99966.25;6138150;23;20181;-96
2023/10/04 03:00:04;;;;;;;16.30;7.57;;;;;;;10.56;70.35;100007.69;6110888;23;20001;-94
2023/10/04 03:02:29;;;;;;;14.57;6.82;;;;;;;10.28;69.96;99963.75;6147927;23;20060;-94
2023/10/04 03:04:56;;;;;;;20.73;7.68;;;;;;;10.45;69.94;99984.41;6139947;23;20432;-95
2023/10/04 03:07:24;;;;;;;14.63;8.25;;;;;;;10.39;70.05;99974.66;6141185;23;20087;-95
2023/10/04 03:10:32;;;;;;;16.27;7.18;;;;;;;10.57;69.95;100000.44;6141493;23;20009;-95
2023/10/04 03:16:30;;;;;;;;;;;;;;;;;;;;;
2023/10/04 03:19:54;;;;;;;;;;;;;;;;;;;;;
2023/10/04 03:22:33;;;;;;;18.95;7.90;;;;;;;10.39;70.47;100006.97;6178746;23;20039;-94
2023/10/04 03:25:25;;;;;;;;;;;;;;;;;;;;;
2023/10/04 03:28:36;;;;;;;14.55;7.15;;;;;;;10.09;70.31;99973.22;6171057;23;20040;-94
2023/10/04 03:31:39;;;;;;;17.90;7.43;;;;;;;10.20;70.58;99979.53;6187585;23;20534;-96
2023/10/04 03:34:40;;;;;;;;;;;;;;;;;;;;;
2023/10/04 03:37:27;;;;;;;;;;;;;;;;;;;;;
2023/10/04 03:40:06;;;;;;;23.38;7.80;;;;;;;10.23;70.43;99985.22;6170364;23;20040;-93
2023/10/04 03:42:57;;;;;;;18.77;7.20;;;;;;;10.18;70.36;99973.56;6144612;23;20016;-94
2023/10/04 03:45:33;;;;;;;14.23;7.53;;;;;;;10.15;70.52;99971.38;6165913;23;20028;-94
2023/10/04 03:48:43;;;;;;;15.95;7.50;;;;;;;10.15;70.51;99972.22;6143524;23;20436;-94
2023/10/04 03:55:11;;;;;;;18.02;7.35;;;;;;;9.94;70.68;99956.84;6142818;23;20360;-96
2023/10/04 03:58:24;;;;;;;22.15;7.63;;;;;;;10.12;70.89;100004.97;6083143;23;20109;-94
2023/10/04 04:01:01;;;;;;;18.95;8.93;;;;;;;10.02;71.56;100004.84;6126006;23;20032;-94
2023/10/04 04:04:11;;;;;;;17.98;8.30;;;;;;;9.89;71.27;99981.81;6114038;23;20036;-95
2023/10/04 04:07:00;;;;;;;;;;;;;;;;;;;;;
2023/10/04 04:09:46;;;;;;;24.55;8.63;;;;;;;9.88;71.55;99991.78;6138766;23;20033;-94
2023/10/04 04:12:52;;;;;;;;;;;;;;;;;;;;;
2023/10/04 04:16:03;;;;;;;;;;;;;;;;;;;;;
2023/10/04 04:21:59;;;;;;;25.70;11.33;;;;;;;9.96;71.48;99984.31;6147802;23;20009;-95
2023/10/04 04:27:56;;;;;;;37.92;21.23;;;;;;;9.88;71.51;99978.31;6099004;23;20010;-96
2023/10/04 04:34:07;;;;;;;23.42;10.25;;;;;;;10.00;71.07;99983.59;6133062;23;20057;-94
2023/10/04 04:36:36;;;;;;;23.73;9.07;;;;;;;10.15;71.27;100007.19;6140400;23;20440;-94
2023/10/04 04:39:05;;;;;;;78.10;14.55;;;;;;;9.96;71.33;99981.63;6115526;23;20065;-93
2023/10/04 04:41:58;;;;;;;19.42;9.70;;;;;;;10.04;70.82;100005.41;6093706;23;20001;-94
2023/10/04 04:44:48;;;;;;;;;;;;;;;;;;;;;
2023/10/04 04:48:02;;;;;;;;;;;;;;;;;;;;;
2023/10/04 04:51:08;;;;;;;;;;;;;;;;;;;;;
2023/10/04 04:53:52;;;;;;;24.40;10.68;;;;;;;10.07;70.51;100003.06;6196386;23;20069;-94
2023/10/04 04:57:09;;;;;;;26.30;10.80;;;;;;;10.06;70.48;99987.94;6149621;23;20040;-94
2023/10/04 05:00:55;;;;;;;;;;;;;;;;;;;;;
2023/10/04 05:07:09;;;;;;;27.77;12.32;;;;;;;10.20;70.44;100004.56;5941005;23;20009;-95
2023/10/04 05:09:55;;;;;;;;;;;;;;;;;;;;;
2023/10/04 05:12:35;;;;;;;43.78;17.08;;;;;;;10.38;70.77;100029.56;6083154;23;20169;-94
2023/10/04 05:19:52;;;;;;;39.22;14.60;;;;;;;10.50;71.06;100041.03;5993296;24;20028;-95
2023/10/04 05:23:21;;;;;;;41.17;18.27;;;;;;;10.36;70.08;100012.84;5992360;24;20031;-95
2023/10/04 05:29:57;;;;;;;54.60;26.85;;;;;;;10.63;69.93;100047.91;5857857;24;20013;-94
2023/10/04 05:39:11;;;;;;;43.28;18.55;;;;;;;10.87;68.89;100033.09;5881160;24;20091;-94
2023/10/04 05:41:42;;;;;;;40.10;17.73;;;;;;;10.91;68.37;100027.97;5939482;23;20081;-96
2023/10/04 05:44:15;;;;;;;44.77;17.77;;;;;;;11.15;68.26;100062.72;6054164;23;20019;-92
2023/10/04 05:46:44;;;;;;;42.00;18.83;;;;;;;11.12;68.49;100045.16;6050067;23;20006;-93
2023/10/04 05:53:26;;;;;;;44.45;19.50;;;;;;;11.33;67.71;100040.78;6022280;23;20011;-93
2023/10/04 06:02:07;;;;;;;40.58;17.70;;;;;;;11.78;66.59;100030.59;5948917;24;20021;-95
2023/10/04 06:04:33;;;;;;;47.33;19.10;;;;;;;12.05;65.93;100052.09;5918512;24;20020;-96
2023/10/04 06:07:13;;;;;;;38.45;17.95;;;;;;;12.01;65.70;100032.09;5945158;24;20069;-96
2023/10/04 06:10:45;;;;;;;43.25;19.92;;;;;;;12.24;65.43;100066.78;5946507;24;20008;-95
2023/10/04 06:16:33;;;;;;;40.88;17.98;;;;;;;12.69;64.50;100062.63;5966119;24;20068;-92
2023/10/04 06:19:19;;;;;;;42.88;18.00;;;;;;;12.81;63.73;100067.00;5965317;24;20015;-95
2023/10/04 06:22:25;;;;;;;;;;;;;;;;;;;;;
2023/10/04 06:25:11;;;;;;;41.03;15.85;;;;;;;12.98;62.63;100034.34;5962480;24;20130;-94
2023/10/04 06:27:39;;;;;;;25.15;13.55;;;;;;;13.23;61.62;100050.59;5992277;23;20059;-94
2023/10/04 06:30:23;;;;;;;;;;;;;;;;;;;;;
2023/10/04 06:33:33;;;;;;;32.58;14.30;;;;;;;13.63;60.99;100067.94;6121927;23;20023;-95
2023/10/04 06:39:22;;;;;;;14.93;7.93;;;;;;;14.13;57.64;100078.97;6158569;23;20060;-94
2023/10/04 06:41:53;;;;;;;18.58;9.15;;;;;;;14.13;57.18;100043.75;6146858;23;19997;-94
2023/10/04 06:44:27;;;;;;;25.58;9.65;;;;;;;14.24;56.81;100036.44;6167148;23;20016;-94
2023/10/04 06:46:55;;;;;;;20.45;10.02;;;;;;;14.49;56.61;100058.00;6148694;23;20036;-96
2023/10/04 06:49:21;;;;;;;18.63;9.38;;;;;;;14.66;55.69;100054.16;6144797;23;19997;-95
2023/10/04 06:51:49;;;;;;;23.95;9.40;;;;;;;14.89;55.40;100053.47;6144641;23;20075;-94
2023/10/04 06:54:25;;;;;;;26.02;10.30;;;;;;;15.07;55.11;100065.59;6143262;23;20021;-94
2023/10/04 06:57:23;;;;;;;22.88;9.38;;;;;;;15.13;54.40;100053.59;6142423;23;20005;-94
2023/10/04 07:00:18;;;;;;;21.90;9.57;;;;;;;15.42;53.99;100058.28;6135168;23;20442;-94
2023/10/04 07:02:53;;;;;;;27.23;10.38;;;;;;;15.63;53.58;100068.97;6090740;23;20037;-92
2023/10/04 07:05:24;;;;;;;21.55;9.43;;;;;;;15.71;53.06;100057.50;6119865;23;20092;-93
2023/10/04 07:07:53;;;;;;;18.27;9.63;;;;;;;15.97;52.58;100071.66;6063300;23;20049;-93
2023/10/04 07:10:22;;;;;;;35.20;16.98;;;;;;;15.90;52.90;100047.56;6087933;23;20551;-93
2023/10/04 07:12:51;;;;;;;20.63;11.05;;;;;;;16.10;52.72;100051.16;6087394;23;19990;-92
2023/10/04 07:15:39;;;;;;;23.83;10.63;;;;;;;16.22;51.91;100046.13;6112636;23;20022;-94
2023/10/04 07:18:17;;;;;;;29.08;12.63;;;;;;;16.38;51.67;100043.25;6089517;23;20006;-94
2023/10/04 07:21:06;;;;;;;;;;;;;;;;;;;;;
2023/10/04 07:23:34;;;;;;;23.05;10.88;;;;;;;16.75;51.10;100056.06;6116644;23;20033;-95
2023/10/04 07:26:00;;;;;;;26.25;13.77;;;;;;;16.79;50.92;100043.50;6087456;23;19997;-94
2023/10/04 07:28:28;;;;;;;30.33;17.50;;;;;;;16.90;50.33;100044.22;6109109;23;20006;-94
2023/10/04 07:31:00;;;;;;;27.40;14.23;;;;;;;17.07;50.09;100039.03;6083527;23;20043;-93
2023/10/04 07:33:50;;;;;;;22.08;11.75;;;;;;;17.26;49.89;100041.75;6139964;23;20001;-93
2023/10/04 07:36:24;;;;;;;23.63;11.65;;;;;;;17.36;49.63;100032.59;6153151;23;20029;-96
2023/10/04 07:58:15;;;;;;;33.00;11.65;;;;;;;18.77;45.81;100047.66;6137397;23;20005;-95
2023/10/04 08:04:00;;;;;;;23.65;11.60;;;;;;;19.10;45.54;100044.78;6036922;23;20023;-93
2023/10/04 08:06:49;;;;;;;;;;;;;;;;;;;;;
2023/10/04 08:16:18;;;;;;;;;;;;;;;;;;;;;
2023/10/04 08:18:49;;;;;;;21.85;13.15;;;;;;;19.64;44.26;100012.03;6084455;23;20073;-93
2023/10/04 08:21:37;;;;;;;19.00;8.70;;;;;;;19.70;44.17;100013.53;6084594;23;20342;-94
2023/10/04 08:24:32;;;;;;;15.63;7.60;;;;;;;20.02;43.85;100039.72;6141435;23;20341;-94
2023/10/04 08:27:10;;;;;;;16.13;8.30;;;;;;;20.01;44.39;100015.47;6138607;23;20015;-94
2023/10/04 08:29:44;;;;;;;17.55;7.43;;;;;;;20.12;43.15;100014.03;6122428;23;20005;-94
2023/10/04 08:42:29;;;;;;;26.98;12.48;;;;;;;20.84;39.55;100003.75;6109835;23;20050;-94
2023/10/04 08:45:07;;;;;;;10.77;5.55;;;;;;;20.98;37.75;100009.88;6068194;23;20006;-96
2023/10/04 08:48:09;;;;;;;;;;;;;;;;;;;;;
2023/10/04 08:53:59;;;;;;;12.82;4.90;;;;;;;21.38;38.26;100023.38;6203697;22;20013;-93
2023/10/04 08:56:58;;;;;;;18.42;8.52;;;;;;;21.26;38.19;99993.88;6177037;23;20009;-93
2023/10/04 08:59:25;;;;;;;13.32;5.72;;;;;;;21.36;38.54;99998.22;6177128;23;20016;-96
2023/10/04 09:02:08;;;;;;;;;;;;;;;;;;;;;
2023/10/04 09:13:23;;;;;;;14.55;5.45;;;;;;;21.82;37.98;99991.19;6075588;23;20054;-95
2023/10/04 09:19:30;;;;;;;12.27;5.55;;;;;;;21.83;37.30;99981.84;6181494;23;20080;-94
2023/10/04 09:21:58;;;;;;;;;;;;;;;22.00;36.74;100005.63;6148243;23;20080;-94
2023/10/04 09:24:24;;;;;;;11.82;4.68;;;;;;;21.92;36.68;99976.31;6173055;23;19900;-93
2023/10/04 09:26:51;;;;;;;17.15;6.50;;;;;;;22.13;37.10;100006.53;6119399;23;20025;-95
2023/10/04 09:39:33;;;;;;;;;;;;;;;;;;;;;
2023/10/04 09:42:33;;;;;;;9.93;5.43;;;;;;;22.28;35.63;99973.06;6088474;23;20020;-94
2023/10/04 09:45:37;;;;;;;10.38;4.85;;;;;;;22.53;35.82;99990.50;6173206;23;20005;-89
2023/10/04 09:48:06;;;;;;;16.25;5.25;;;;;;;22.47;35.49;99983.59;6031298;23;20011;-92
2023/10/04 09:50:33;;;;;;;12.20;4.38;;;;;;;22.52;34.67;99969.69;6034168;23;20003;-94
2023/10/04 10:00:06;;;;;;;13.77;5.63;;;;;;;22.63;35.31;99950.88;6110322;23;20013;-95
2023/10/04 10:02:55;;;;;;;12.48;4.60;;;;;;;22.75;34.96;99964.66;6173147;23;20017;-93
2023/10/04 10:05:26;;;;;;;10.02;5.28;;;;;;;22.90;35.09;99976.97;6148163;23;20008;-94
2023/10/04 10:09:17;;;;;;;;;;;;;;;;;;;;;
2023/10/04 10:15:18;;;;;;;8.88;4.35;;;;;;;22.95;34.83;99956.72;6080589;23;20097;-95
2023/10/04 10:17:52;;;;;;;11.13;4.32;;;;;;;22.98;33.31;99956.88;6177678;23;19997;-94
2023/10/04 10:20:19;;;;;;;7.78;3.92;;;;;;;23.14;33.35;99967.28;6121469;23;20001;-94
2023/10/04 10:23:05;;;;;;;9.60;4.43;;;;;;;23.14;32.40;99976.31;6142261;23;20067;-93
2023/10/04 10:28:47;;;;;;;10.98;4.38;;;;;;;23.29;32.11;99972.13;6202213;22;20034;-95
2023/10/04 10:31:20;;;;;;;10.00;4.72;;;;;;;23.23;32.12;99956.19;6199755;23;20020;-92
2023/10/04 10:33:51;;;;;;;8.32;4.22;;;;;;;23.23;32.00;99962.47;6173607;23;19997;-93
2023/10/04 10:36:24;;;;;;;10.20;4.68;;;;;;;23.17;31.55;99937.16;6150390;23;20449;-91
2023/10/04 10:38:55;;;;;;;10.98;5.10;;;;;;;23.36;31.87;99963.31;6148003;23;20003;-92
2023/10/04 10:41:30;;;;;;;;;;;;;;;23.45;32.10;99961.28;6174299;23;20055;-92
2023/10/04 10:44:20;;;;;;;11.98;4.68;;;;;;;23.47;32.53;99956.25;6196092;23;19908;-91
2023/10/04 10:47:14;;;;;;;10.18;4.20;;;;;;;23.51;31.80;99957.16;6198138;23;20023;-93
2023/10/04 10:50:07;;;;;;;8.43;3.90;;;;;;;23.47;31.53;99950.75;6201563;23;20011;-94
2023/10/04 10:52:41;;;;;;;13.05;4.38;;;;;;;23.50;31.61;99944.56;6150609;23;20024;-93
2023/10/04 10:55:18;;;;;;;10.57;4.13;;;;;;;23.46;31.29;99926.34;6176559;23;20028;-94
2023/10/04 10:57:50;;;;;;;11.02;4.80;;;;;;;23.56;30.65;99931.41;6152830;23;20372;-93
2023/10/04 11:02:59;;;;;;;10.02;4.05;;;;;;;23.55;30.59;99925.09;6200017;23;19908;-95
2023/10/04 11:05:28;;;;;;;11.13;4.47;;;;;;;23.52;30.69;99924.97;6172557;23;20083;-94
2023/10/04 11:08:12;;;;;;;;;;;;;;;;;;;;;
2023/10/04 11:11:09;;;;;;;11.30;4.70;;;;;;;23.77;30.44;99934.88;6181885;23;20044;-95
2023/10/04 11:14:25;;;;;;;14.23;4.68;;;;;;;23.62;30.07;99905.28;6202893;23;19997;-93
2023/10/04 11:18:10;;;;;;;10.02;4.40;;;;;;;23.84;30.37;99920.53;6090914;23;20021;-94
2023/10/04 11:21:26;;;;;;;9.95;4.20;;;;;;;23.78;30.12;99908.16;6119508;23;20039;-94
2023/10/04 11:24:01;;;;;;;11.40;4.57;;;;;;;23.80;29.31;99903.94;6032567;23;20008;-95
2023/10/04 11:30:06;;;;;;;;;;;;;;;;;;;;;
2023/10/04 11:35:57;;;;;;;9.45;4.63;;;;;;;24.08;28.15;99905.97;6113414;23;20033;-94
2023/10/04 11:38:27;;;;;;;12.23;4.72;;;;;;;24.12;27.83;99906.09;6061503;23;20012;-95
2023/10/04 11:40:56;;;;;;;8.45;4.60;;;;;;;24.17;28.53;99917.63;6061598;23;20009;-95
2023/10/04 11:43:27;;;;;;;12.55;6.13;;;;;;;24.11;28.40;99888.75;6061681;23;20505;-95
2023/10/04 11:45:59;;;;;;;10.68;4.72;;;;;;;24.17;28.68;99892.88;6060580;23;20014;-95
2023/10/04 11:48:25;;;;;;;11.73;4.78;;;;;;;24.26;28.53;99906.53;6115364;23;20005;-95
2023/10/04 11:50:54;;;;;;;18.10;6.05;;;;;;;24.17;29.02;99887.38;6117315;23;20028;-94
2023/10/04 11:53:39;;;;;;;12.98;5.93;;;;;;;24.31;28.33;99908.22;6119412;23;20005;-94
2023/10/04 11:56:42;;;;;;;11.50;5.15;;;;;;;24.20;27.47;99878.44;6121455;23;19985;-94
2023/10/04 11:59:13;;;;;;;12.35;5.15;;;;;;;24.32;27.51;99888.63;6149588;23;20012;-91
2023/10/04 12:02:08;;;;;;;9.98;4.85;;;;;;;24.28;26.85;99870.38;6122840;23;20017;-91
2023/10/04 12:04:49;;;;;;;12.68;5.85;;;;;;;24.32;26.55;99877.63;6119221;23;20025;-92
2023/10/04 12:07:40;;;;;;;12.98;4.90;;;;;;;24.13;27.56;99856.19;6149740;23;20009;-93
2023/10/04 12:10:13;;;;;;;11.50;5.07;;;;;;;24.37;27.38;99877.34;6151035;23;20003;-93
2023/10/04 12:13:00;;;;;;;10.05;5.05;;;;;;;24.48;26.92;99882.38;6154770;23;20006;-88
2023/10/04 12:15:27;;;;;;;9.55;4.75;;;;;;;24.48;26.82;99879.63;6174061;23;20032;-92
2023/10/04 12:25:42;;;;;;;11.80;4.43;;;;;;;24.53;26.74;99863.69;6072585;23;20160;-90
2023/10/04 12:28:29;;;;;;;10.23;4.55;;;;;;;24.47;26.58;99851.28;6020660;23;20019;-90
2023/10/04 12:31:15;;;;;;;12.57;5.72;;;;;;;24.46;25.79;99840.63;6132780;23;20001;-92
2023/10/04 12:34:11;;;;;;;11.07;5.15;;;;;;;24.44;25.65;99840.16;6172611;23;20029;-91
2023/10/04 12:36:40;;;;;;;13.77;8.20;;;;;;;24.65;26.58;99853.75;6170572;23;20001;-90
2023/10/04 12:40:10;;;;;;;;;;;;;;;;;;;;;
2023/10/04 12:49:59;;;;;;;10.75;4.35;;;;;;;24.64;26.25;99858.47;5961124;24;20042;-93
2023/10/04 12:52:28;;;;;;;11.30;4.78;;;;;;;24.50;26.26;99836.03;5959637;24;20030;-92
2023/10/04 12:55:09;;;;;;;8.95;4.50;;;;;;;24.53;26.22;99835.34;5960657;24;20012;-92
2023/10/04 13:01:06;;;;;;;9.10;4.53;;;;;;;24.55;26.62;99816.50;5968490;24;20008;-94
2023/10/04 13:04:13;;;;;;;;;;;;;;;;;;;;;
2023/10/04 13:07:16;;;;;;;11.02;4.60;;;;;;;24.62;26.24;99836.00;5988904;24;20032;-93
2023/10/04 13:09:48;;;;;;;11.35;4.57;;;;;;;24.52;26.04;99819.97;5986679;23;20089;-92
2023/10/04 13:15:42;;;;;;;10.30;4.50;;;;;;;24.63;25.90;99840.34;6030913;23;20007;-92
2023/10/04 13:18:26;;;;;;;12.85;4.88;;;;;;;24.50;26.46;99825.81;6063663;23;20065;-94
2023/10/04 13:21:16;;;;;;;12.98;5.63;;;;;;;24.56;26.02;99826.38;6117700;23;20010;-94
2023/10/04 13:23:46;;;;;;;9.02;5.03;;;;;;;24.64;26.54;99838.41;6164918;23;20006;-94
2023/10/04 13:29:14;;;;;;;10.68;4.78;;;;;;;24.63;26.13;99829.31;6133190;23;20025;-93
2023/10/04 13:31:50;;;;;;;12.55;6.22;;;;;;;24.66;25.85;99830.59;6157687;23;20005;-96
2023/10/04 13:34:39;;;;;;;10.35;4.50;;;;;;;24.59;26.72;99831.19;6172761;23;20009;-94
2023/10/04 13:37:21;;;;;;;12.57;5.03;;;;;;;24.65;26.44;99834.47;6146531;23;20541;-93
2023/10/04 13:40:01;;;;;;;10.18;4.15;;;;;;;24.51;27.03;99827.44;6118586;23;20001;-93
2023/10/04 13:45:39;;;;;;;13.68;6.07;;;;;;;24.81;27.34;99851.84;6147108;23;20006;-94
2023/10/04 13:48:11;;;;;;;11.98;5.28;;;;;;;24.77;26.38;99860.00;6093558;23;19997;-95
2023/10/04 13:50:38;;;;;;;15.15;5.13;;;;;;;24.70;26.93;99845.25;6118514;23;20008;-94
2023/10/04 13:53:05;;;;;;;10.27;5.15;;;;;;;24.63;26.60;99851.34;6091078;23;19994;-94
2023/10/04 13:55:38;;;;;;;13.15;4.40;;;;;;;24.56;26.47;99831.88;6089971;23;20081;-95
2023/10/04 13:58:09;;;;;;;17.02;9.45;;;;;;;24.73;26.37;99856.34;6139919;23;20017;-95
2023/10/04 14:00:56;;;;;;;9.77;5.10;;;;;;;24.58;26.56;99840.59;6094172;23;20001;-94
2023/10/04 14:03:38;;;;;;;11.45;4.35;;;;;;;24.60;26.16;99841.84;6177341;23;20015;-94
2023/10/04 14:06:17;;;;;;;10.27;5.07;;;;;;;24.73;26.96;99850.03;6172721;23;20001;-93
2023/10/04 14:11:37;;;;;;;11.40;4.53;;;;;;;24.67;26.61;99841.22;6130653;23;20001;-94
2023/10/04 14:14:07;;;;;;;13.40;5.10;;;;;;;24.64;26.94;99841.94;6170544;23;19997;-94
2023/10/04 14:17:13;;;;;;;12.55;5.03;;;;;;;24.78;26.94;99858.88;6142202;23;20053;-95
2023/10/04 14:19:45;;;;;;;9.60;4.68;;;;;;;24.71;26.59;99839.38;6114372;23;19984;-94
2023/10/04 14:22:10;;;;;;;;;;;;;;;24.80;26.63;99855.75;6088445;23;20001;-94
2023/10/04 14:24:36;;;;;;;9.95;4.72;;;;;;;24.68;26.56;99826.31;6110776;23;20263;-92
2023/10/04 14:27:04;;;;;;;11.02;4.90;;;;;;;24.67;27.12;99826.66;6087252;23;20380;-94
2023/10/04 14:29:30;;;;;;;10.77;4.57;;;;;;;24.77;26.68;99842.69;6087275;23;20021;-93
2023/10/04 14:32:01;;;;;;;10.30;5.10;;;;;;;24.67;27.12;99840.44;6087269;23;20096;-93
2023/10/04 14:34:27;;;;;;;;;;;;;;;24.68;26.71;99848.34;6088379;23;20368;-92
2023/10/04 14:36:55;;;;;;;12.68;4.30;;;;;;;24.47;27.19;99836.72;6113236;23;19908;-92
2023/10/04 14:39:24;;;;;;;10.20;4.60;;;;;;;24.49;26.87;99846.25;6089181;23;20352;-92
2023/10/04 14:41:50;;;;;;;12.00;5.00;;;;;;;24.40;26.72;99840.06;6111170;23;20128;-95
2023/10/04 14:44:35;;;;;;;8.48;4.53;;;;;;;24.44;26.82;99859.44;6089944;23;20006;-94
2023/10/04 14:47:01;;;;;;;10.23;4.20;;;;;;;24.27;26.88;99844.81;6120037;23;20004;-94
2023/10/04 14:49:26;;;;;;;16.50;5.18;;;;;;;24.23;27.66;99843.13;6140209;23;20008;-93
2023/10/04 14:52:12;;;;;;;19.73;5.45;;;;;;;24.16;28.71;99844.50;6148238;23;20008;-92
2023/10/04 14:54:44;;;;;;;12.57;5.05;;;;;;;24.13;29.05;99845.19;6174399;23;20005;-92
2023/10/04 14:57:09;;;;;;;22.77;7.07;;;;;;;24.04;29.58;99861.03;6166482;23;20060;-92
2023/10/04 14:59:41;;;;;;;11.32;4.55;;;;;;;23.89;28.50;99854.31;6163921;23;20000;-94
2023/10/04 15:02:09;;;;;;;19.60;7.27;;;;;;;23.88;30.87;99865.66;6143887;23;20447;-94
2023/10/04 15:04:47;;;;;;;20.58;6.55;;;;;;;23.72;31.17;99866.34;6165414;23;20001;-95
2023/10/04 15:07:13;;;;;;;15.70;6.57;;;;;;;23.51;31.49;99854.63;6140091;23;20009;-94
2023/10/04 15:09:39;;;;;;;12.98;5.07;;;;;;;23.47;30.58;99868.28;6142504;23;20424;-94
2023/10/04 15:12:05;;;;;;;15.85;6.70;;;;;;;23.33;32.09;99876.06;6139824;23;20029;-93
2023/10/04 15:14:32;;;;;;;14.13;5.40;;;;;;;23.25;29.94;99864.03;6142073;23;20137;-94
2023/10/04 15:17:14;;;;;;;20.58;5.85;;;;;;;23.26;31.50;99871.09;6145773;23;20005;-93
2023/10/04 15:19:43;;;;;;;13.63;4.50;;;;;;;23.17;31.15;99884.94;6183112;23;20005;-92
2023/10/04 15:22:09;;;;;;;12.38;5.50;;;;;;;23.07;31.13;99863.41;6142438;23;20015;-91
2023/10/04 15:24:37;;;;;;;26.33;7.30;;;;;;;23.04;31.78;99866.84;6140891;23;19997;-94
2023/10/04 15:27:05;;;;;;;11.40;5.30;;;;;;;22.95;31.81;99858.69;6140365;23;20005;-93
2023/10/04 15:29:39;;;;;;;14.95;5.18;;;;;;;22.94;31.44;99861.75;6148543;23;20017;-94
2023/10/04 15:32:05;;;;;;;18.40;5.20;;;;;;;22.93;31.12;99868.38;6111513;23;20013;-93
2023/10/04 15:34:31;;;;;;;13.93;5.25;;;;;;;22.82;30.49;99861.72;6135102;23;19997;-92
2023/10/04 15:36:57;;;;;;;14.23;5.28;;;;;;;22.80;30.79;99865.59;6114470;23;20012;-94
2023/10/04 15:39:31;;;;;;;11.50;5.93;;;;;;;22.79;31.19;99877.75;6136862;23;20009;-93
2023/10/04 15:41:56;;;;;;;14.43;5.18;;;;;;;22.61;32.99;99876.28;6136868;23;20483;-93
2023/10/04 15:44:22;;;;;;;12.63;5.25;;;;;;;22.51;33.66;99873.97;6114182;23;20065;-93
2023/10/04 15:46:48;;;;;;;29.15;5.85;;;;;;;22.48;33.79;99882.88;6137043;23;20087;-93
2023/10/04 15:49:16;;;;;;;12.13;5.53;;;;;;;22.30;33.99;99874.78;6114462;23;20053;-93
2023/10/04 15:51:43;;;;;;;16.75;6.78;;;;;;;22.38;33.80;99890.38;6137808;23;20048;-94
2023/10/04 15:54:09;;;;;;;17.95;6.03;;;;;;;22.38;32.81;99895.84;6138199;23;20004;-93
2023/10/04 15:56:35;;;;;;;12.48;5.88;;;;;;;22.23;34.11;99890.16;6137124;23;20001;-93
2023/10/04 15:59:01;;;;;;;19.23;6.20;;;;;;;22.06;34.70;99888.31;6137803;23;20078;-93
2023/10/04 16:01:29;;;;;;;13.68;5.25;;;;;;;22.10;33.04;99913.94;6119112;23;20014;-92
2023/10/04 16:04:00;;;;;;;17.60;5.82;;;;;;;22.16;33.16;99926.31;6162150;23;20012;-93
2023/10/04 16:06:26;;;;;;;;;;;;;;;22.10;33.78;99924.91;6146059;23;19989;-94
2023/10/04 16:08:52;;;;;;;9.27;5.07;;;;;;;21.98;33.54;99922.91;6171760;23;19915;-93
2023/10/04 16:11:17;;;;;;;9.68;4.85;;;;;;;21.83;33.68;99898.78;6142979;23;20076;-93